Terminal Aerodrome Forecast
Issued by NWS Northern Indiana

Home | Current Version | Previous Version | Text Only | Print | Product List | Glossary On
Versions: 1 2 3 4 5 6 7 8 9 10 11 12 13
000
FTUS43 KIWX 262300 RRA
TAFFWA
TAF
KFWA 262349Z 2700/2724 20012KT P6SM SCT250
     FM271400 21014G22KT P6SM BKN025 OVC040
     FM271600 21014KT 5SM -RA BR OVC015=

USA.gov is the U.S. government's official web portal to all federal, state and local government web resources and services.